ADDS METAR Data INFO
IDs: Format: Raw Decoded Include TAF

Data at: 2011 UTC 19 Oct 2017

KCDD 191946Z AUTO 17004KT 10SM CLR 17/M04 A2989 RMK AO2
KCDD 191931Z AUTO 16005KT 10SM CLR 17/M04 A2989 RMK AO2
KCDD 191912Z AUTO 21003KT 10SM CLR 16/M06 A2991 RMK AO2
KCDD 191846Z AUTO 20004KT 10SM CLR 16/M06 A2992 RMK AO2
KCDD 191831Z AUTO 20003KT 10SM CLR 16/M06 A2993 RMK AO2
KCDD 191746Z AUTO 19008KT 10SM CLR 14/M07 A2996 RMK AO2
KCDD 191731Z AUTO 26004KT 10SM CLR 14/M06 A2997 RMK AO2
KCDD 191711Z AUTO 21006KT 10SM CLR 13/M07 A2996 RMK AO2
KCDD 191646Z AUTO 23005KT 10SM CLR 12/M08 A2997 RMK AO2
KCDD 191631Z AUTO 23005KT 10SM CLR 12/M07 A2997 RMK AO2
KCDD 191611Z AUTO 21005KT 10SM CLR 11/M07 RMK AO2
KCDD 191546Z AUTO 00000KT 10SM CLR 10/M06 A2996 RMK AO2
KCDD 191531Z AUTO 24004KT 10SM CLR 09/M06 A2996 RMK AO2
KCDD 191511Z AUTO 23004KT 10SM CLR 08/M06 A2995 RMK AO2
KCDD 191446Z AUTO 23005KT 10SM CLR 07/M06 A2995 RMK AO2
KCDD 191431Z AUTO 25005KT 10SM CLR 07/M06 A2996 RMK AO2
KCDD 191411Z AUTO 24003KT 10SM CLR 06/M06 A2995 RMK AO2
KCDD 191346Z AUTO 22004KT 10SM CLR 06/M07 A2994 RMK AO2
KCDD 191331Z AUTO 25003KT 10SM CLR 06/M07 A2994 RMK AO2
KCDD 191312Z AUTO 24004KT 10SM CLR 06/M07 A2994 RMK AO2
KCDD 191246Z AUTO 25005KT 10SM CLR 05/M07 A2992 RMK AO2
KCDD 191231Z AUTO 26004KT 10SM CLR 05/M07 A2992 RMK AO2
KCDD 191211Z AUTO 23003KT 10SM CLR 05/M07 A2991 RMK AO2
KCDD 191146Z AUTO 26003KT 10SM CLR 06/M07 A2990 RMK AO2
KCDD 191131Z AUTO 24003KT 10SM CLR 06/M08 A2990 RMK AO2
KCDD 191111Z AUTO 24003KT 10SM CLR 06/M08 A2989 RMK AO2
KCDD 191046Z AUTO 23004KT 10SM CLR 06/M08 A2988 RMK AO2
KCDD 191031Z AUTO 25003KT 10SM CLR 07/M09 A2988 RMK AO2
KCDD 191011Z AUTO 23004KT 10SM CLR 07/M09 A2987 RMK AO2
KCDD 190946Z AUTO 26007KT 203V283 10SM CLR 07/M09 A2986 RMK AO2
KCDD 190932Z AUTO 25005KT 10SM CLR 07/M09 A2986 RMK AO2
KCDD 190911Z AUTO 25004KT 10SM CLR 07/M09 A2985 RMK AO2
KCDD 190846Z AUTO 25006KT 10SM CLR 07/M09 A2984 RMK AO2
KCDD 190831Z AUTO 22004KT 10SM CLR 07/M09 A2983 RMK AO2
KCDD 190811Z AUTO 24007KT 10SM CLR 07/M09 A2984 RMK AO2
KCDD 190746Z AUTO 23005KT 10SM CLR 08/M10 A2983 RMK AO2
KCDD 190731Z AUTO 25004KT 10SM CLR 08/M11 A2983 RMK AO2
KCDD 190711Z AUTO 25005KT 10SM CLR 08/M11 A2982 RMK AO2
KCDD 190646Z AUTO 25006KT 10SM CLR 08/M11 A2981 RMK AO2
KCDD 190632Z AUTO 25006G14KT 10SM CLR 09/M11 A2981 RMK AO2
KCDD 190611Z AUTO 25005KT 10SM CLR 09/M12 A2980 RMK AO2
KCDD 190546Z AUTO 25007G15KT 203V283 10SM CLR 09/M12 A2979 RMK AO2
KCDD 190531Z AUTO 27009G17KT 243V303 10SM CLR 09/M12 A2979 RMK AO2
KCDD 190512Z AUTO 26010G15KT 193V293 10SM CLR 09/M12 A2979 RMK AO2
KCDD 190446Z AUTO 26007G15KT 233V293 10SM CLR 09/M12 A2978 RMK AO2
KCDD 190431Z AUTO 25006KT 10SM CLR 09/M13 A2978 RMK AO2
KCDD 190411Z AUTO 25010G18KT 203V303 10SM CLR 09/M13 A2978 RMK AO2
KCDD 190346Z AUTO 26007KT 223V283 10SM CLR 09/M12 A2978 RMK AO2
KCDD 190331Z AUTO 24008G17KT 193V293 10SM CLR 09/M12 A2977 RMK AO2
KCDD 190311Z AUTO 25006G18KT 10SM CLR 09/M12 A2977 RMK AO2
KCDD 190246Z AUTO 25007KT 203V283 10SM CLR 09/M11 A2977 RMK AO2
KCDD 190231Z AUTO 25007G15KT 10SM CLR 10/M11 A2977 RMK AO2
KCDD 190211Z AUTO 26009KT 10SM CLR 10/M11 A2976 RMK AO2
KCDD 190146Z AUTO 25006KT 10SM CLR 10/M11 A2975 RMK AO2
KCDD 190131Z AUTO 24006KT 10SM CLR 11/M11 A2975 RMK AO2
KCDD 190111Z AUTO 24006KT 10SM CLR 11/M11 A2975 RMK AO2
KCDD 190046Z AUTO 25010G16KT 223V283 10SM CLR 11/M12 A2974 RMK AO2
KCDD 190031Z AUTO 25008G16KT 10SM CLR 11/M12 A2974 RMK AO2
KCDD 190012Z AUTO 25006G16KT 10SM CLR 12/M12 A2973 RMK AO2
KCDD 182346Z AUTO 24006KT 10SM CLR 12/M12 A2972 RMK AO2
KCDD 182332Z AUTO 25006KT 10SM CLR 12/M11 A2972 RMK AO2
KCDD 182311Z AUTO 24005KT 10SM CLR 12/M11 A2971 RMK AO2
KCDD 182246Z AUTO 26006G14KT 10SM CLR 13/M09 A2970 RMK AO2
KCDD 182231Z AUTO 25006G21KT 10SM CLR 13/M10 A2969 RMK AO2
KCDD 182211Z AUTO 25008G16KT 213V283 10SM CLR 14/M09 A2969 RMK AO2
KCDD 182146Z AUTO 23011G23KT 193V283 10SM CLR 14/M09 A2968 RMK AO2
KCDD 182131Z AUTO 27010G19KT 243V313 10SM CLR 14/M09 A2968 RMK AO2
KCDD 182111Z AUTO 27009G19KT 243V303 10SM CLR 15/M08 A2967 RMK AO2
KCDD 182046Z AUTO 25009G19KT 213V283 10SM CLR 16/M08 A2966 RMK AO2
KCDD 182032Z AUTO 27010G18KT 10SM CLR 16/M11 A2967 RMK AO2
KCDD 182011Z AUTO 24012G26KT 213V273 10SM CLR 16/M14 A2966 RMK AO2
KCDD 181946Z AUTO 28011G22KT 213V313 10SM CLR 17/M16 A2965 RMK AO2
KCDD 181931Z AUTO 27011G20KT 233V353 10SM CLR 17/M17 A2965 RMK AO2
KCDD 181911Z AUTO 26010G20KT 223V313 10SM CLR 17/M11 A2963 RMK AO2
KCDD 181846Z AUTO 24010G22KT 173V303 10SM CLR 17/M06 A2964 RMK AO2
KCDD 181831Z AUTO 26005KT 10SM CLR 17/M06 A2963 RMK AO2
KCDD 181812Z AUTO 26010G22KT 223V343 10SM CLR 17/M05 A2964 RMK AO2
KCDD 181746Z AUTO 26006G15KT 10SM CLR 18/M03 A2963 RMK AO2
KCDD 181732Z AUTO 26009G18KT 213V293 10SM CLR 18/M03 A2963 RMK AO2
KCDD 181711Z AUTO 27008G19KT 233V303 10SM CLR 18/M01 A2963 RMK AO2
KCDD 181646Z AUTO 24009G17KT 203V283 10SM CLR 17/02 A2963 RMK AO2
KCDD 181631Z AUTO 26007G14KT 223V313 10SM CLR 17/04 A2963 RMK AO2
KCDD 181611Z AUTO 22007G16KT 10SM CLR 16/04 A2962 RMK AO2
KCDD 181546Z AUTO 21010G15KT 153V253 10SM CLR 16/04 A2961 RMK AO2
KCDD 181532Z AUTO 20008KT 173V233 10SM CLR 16/04 A2960 RMK AO2
KCDD 181511Z AUTO 20006G15KT 10SM CLR 14/04 A2961 RMK AO2
KCDD 181446Z AUTO 20006G15KT 10SM CLR 14/04 A2961 RMK AO2
KCDD 181431Z AUTO 20008KT 10SM CLR 14/04 A2961 RMK AO2
KCDD 181411Z AUTO 20005KT 10SM CLR 13/04 A2961 RMK AO2
KCDD 181346Z AUTO 18006KT 10SM CLR 13/04 A2961 RMK AO2
KCDD 181331Z AUTO 17007KT 10SM CLR 13/03 A2959 RMK AO2
KCDD 181311Z AUTO 20006KT 10SM CLR 13/03 A2962 RMK AO2
KCDD 181246Z AUTO 18008KT 153V213 10SM CLR 13/03 A2957 RMK AO2
KCDD 181231Z AUTO 17007KT 10SM CLR 12/03 A2958 RMK AO2
KCDD 181211Z AUTO 18005KT 10SM CLR 12/03 A2960 RMK AO2
KCDD 181146Z AUTO 17003KT 10SM CLR 12/03 A2962 RMK AO2
KCDD 181131Z AUTO 18005KT 10SM CLR 12/03 A2962 RMK AO2
KCDD 181111Z AUTO 18005KT 10SM CLR 12/03 A2964 RMK AO2
KCDD 181046Z AUTO 18005KT 10SM CLR 12/03 A2965 RMK AO2
KCDD 181031Z AUTO 18006KT 10SM CLR 12/03 A2965 RMK AO2
KCDD 181011Z AUTO 18007KT 143V203 10SM CLR 12/03 A2965 RMK AO2
KCDD 180946Z AUTO 18007KT 163V223 10SM CLR 12/03 A2966 RMK AO2
KCDD 180931Z AUTO 18007KT 153V213 10SM CLR 12/03 A2966 RMK AO2
KCDD 180911Z AUTO 17005KT 10SM CLR 12/03 A2967 RMK AO2
KCDD 180846Z AUTO 17005KT 10SM CLR 12/03 A2968 RMK AO2
KCDD 180831Z AUTO 17005KT 10SM CLR 12/03 A2969 RMK AO2